Rockton, IL (61072)

10:36 AM CST on February 06, 2016 (GMT -0600)
Steward Road | | Change Station
CLOSE
Current Station
Personal Weather Station
Location: Rockford, IL
Elevation: 830 ft
Nearby Weather Stations

Elev 830 ft 42.39 °N, 89.16 °W | Updated 4 seconds ago

Overcast
Overcast
30.7 °F
Feels Like 20 °F
N
15.2
Wind Variable Wind from WSW
Gusts 17.5 mph

Today
High -- | Low -- °F
--% Chance of Precip.
Yesterday
High -- | Low -- °F
Precip. -- in
Pressure 30.22 in
Visibility 10.0 miles
Clouds Overcast 2300 ft
Windchill 20 °F
Dew Point 26 °F
Humidity 83%
Rainfall 0.00 in
Snow Depth Not available.
7:05 AM 5:16 PM
Waning Crescent, 5% visible
METAR KJVL 061445Z 23008KT 10SM OVC023 M01/M04 A3022
Pressure 30.22 in
Visibility 10.0 miles
Clouds Overcast 2300 ft
Windchill 20 °F
Dew Point 26 °F
Humidity 83%
Rainfall 0.00 in
Snow Depth Not available.
7:05 AM 5:16 PM
Waning Crescent, 5% visible
METAR KJVL 061445Z 23008KT 10SM OVC023 M01/M04 A3022

10-Day Weather Forecast

Almanac

Astronomy

Feb. 06, 2016 Rise Set
Actual Time
Civil Twilight
Nautical Twilight
Astronomical Twilight
Moon
Length of Visible Light
Length of Day
Tomorrow will be .
, % of the Moon is Illuminated

Today's Extremes

State Highs State Lows

Community

WunderPhotos

Upload Photos

1,891,015 photos uploaded!

WunderBlog® & News

Nearby

Air Quality

  Air Quality AQ Index Pollutant
Not available.

Snow Depth

Station Depth Elevation

Earthquake Activity

City Distance Mag. Time & Date
Minimum magnitude displayed is 2.5.

Coastal Water Temperatures

Place Temperature

Stations

Nearby Weather Stations

Station Location Temp. Windchill Dew Point Humidity Wind Precip. Elev Updated Type
                   

Watches & Warnings

There are currently no watches in effect.